sensor_id;sensor_type;location;lat;lon;timestamp;pressure;altitude;pressure_sealevel;temperature;humidity
29907;BME280;16776;50.958;10.994;2022-07-18T00:01:02;99446.72;;;17.07;74.59
29907;BME280;16776;50.958;10.994;2022-07-18T00:03:29;99437.41;;;17.01;74.32
29907;BME280;16776;50.958;10.994;2022-07-18T00:05:55;99437.56;;;16.96;73.90
29907;BME280;16776;50.958;10.994;2022-07-18T00:08:22;99440.38;;;16.90;74.02
29907;BME280;16776;50.958;10.994;2022-07-18T00:10:50;99449.28;;;16.85;74.00
29907;BME280;16776;50.958;10.994;2022-07-18T00:13:16;99437.63;;;16.73;74.21
29907;BME280;16776;50.958;10.994;2022-07-18T00:15:43;99440.50;;;16.66;74.09
29907;BME280;16776;50.958;10.994;2022-07-18T00:18:09;99442.50;;;16.59;73.83
29907;BME280;16776;50.958;10.994;2022-07-18T00:20:36;99435.84;;;16.52;74.12
29907;BME280;16776;50.958;10.994;2022-07-18T00:23:02;99439.56;;;16.45;73.69
29907;BME280;16776;50.958;10.994;2022-07-18T00:25:29;99434.59;;;16.39;73.73
29907;BME280;16776;50.958;10.994;2022-07-18T00:27:57;99437.34;;;16.36;73.83
29907;BME280;16776;50.958;10.994;2022-07-18T00:30:23;99443.66;;;16.29;73.84
29907;BME280;16776;50.958;10.994;2022-07-18T00:32:50;99439.50;;;16.25;74.04
29907;BME280;16776;50.958;10.994;2022-07-18T00:35:16;99438.75;;;16.21;74.28
29907;BME280;16776;50.958;10.994;2022-07-18T00:37:43;99437.13;;;16.18;74.00
29907;BME280;16776;50.958;10.994;2022-07-18T00:40:10;99433.72;;;16.16;74.25
29907;BME280;16776;50.958;10.994;2022-07-18T00:42:36;99433.72;;;16.15;74.17
29907;BME280;16776;50.958;10.994;2022-07-18T00:45:05;99431.13;;;16.15;73.99
29907;BME280;16776;50.958;10.994;2022-07-18T00:47:32;99434.84;;;16.08;74.00
29907;BME280;16776;50.958;10.994;2022-07-18T00:49:59;99438.47;;;16.04;74.03
29907;BME280;16776;50.958;10.994;2022-07-18T00:52:27;99433.47;;;15.99;74.00
29907;BME280;16776;50.958;10.994;2022-07-18T00:54:54;99430.22;;;15.93;73.96
29907;BME280;16776;50.958;10.994;2022-07-18T00:57:21;99432.19;;;15.86;74.31
29907;BME280;16776;50.958;10.994;2022-07-18T00:59:48;99409.41;;;15.69;74.07
29907;BME280;16776;50.958;10.994;2022-07-18T01:02:34;99431.84;;;15.72;73.85
29907;BME280;16776;50.958;10.994;2022-07-18T01:05:00;99433.97;;;15.61;73.94
29907;BME280;16776;50.958;10.994;2022-07-18T01:07:27;99433.31;;;15.54;74.32
29907;BME280;16776;50.958;10.994;2022-07-18T01:09:54;99432.69;;;15.48;74.46
29907;BME280;16776;50.958;10.994;2022-07-18T01:12:20;99440.59;;;15.43;74.52
29907;BME280;16776;50.958;10.994;2022-07-18T01:14:47;99436.47;;;15.37;74.93
29907;BME280;16776;50.958;10.994;2022-07-18T01:17:15;99440.81;;;15.37;74.90
29907;BME280;16776;50.958;10.994;2022-07-18T01:19:43;99436.59;;;15.34;74.87
29907;BME280;16776;50.958;10.994;2022-07-18T01:22:11;99422.97;;;15.26;74.89
29907;BME280;16776;50.958;10.994;2022-07-18T01:24:39;99437.53;;;15.30;75.17
29907;BME280;16776;50.958;10.994;2022-07-18T01:27:06;99437.59;;;15.29;75.15
29907;BME280;16776;50.958;10.994;2022-07-18T01:29:33;99431.56;;;15.28;75.08
29907;BME280;16776;50.958;10.994;2022-07-18T01:32:03;99435.78;;;15.31;74.95
29907;BME280;16776;50.958;10.994;2022-07-18T01:34:30;99432.72;;;15.20;74.95
29907;BME280;16776;50.958;10.994;2022-07-18T01:36:57;99431.97;;;15.16;75.11
29907;BME280;16776;50.958;10.994;2022-07-18T01:39:25;99435.47;;;15.15;75.45
29907;BME280;16776;50.958;10.994;2022-07-18T01:41:55;99437.16;;;15.16;75.43
29907;BME280;16776;50.958;10.994;2022-07-18T01:44:21;99434.00;;;15.07;75.46
29907;BME280;16776;50.958;10.994;2022-07-18T01:46:48;99436.59;;;15.07;75.50
29907;BME280;16776;50.958;10.994;2022-07-18T01:49:14;99435.78;;;15.05;75.76
29907;BME280;16776;50.958;10.994;2022-07-18T01:51:44;99440.91;;;15.08;75.61
29907;BME280;16776;50.958;10.994;2022-07-18T01:54:11;99441.06;;;15.03;75.88
29907;BME280;16776;50.958;10.994;2022-07-18T01:56:39;99435.78;;;15.05;75.70
29907;BME280;16776;50.958;10.994;2022-07-18T01:59:06;99435.94;;;15.00;75.90
29907;BME280;16776;50.958;10.994;2022-07-18T02:01:32;99432.50;;;14.99;76.20
29907;BME280;16776;50.958;10.994;2022-07-18T02:03:59;99425.59;;;14.98;76.26
29907;BME280;16776;50.958;10.994;2022-07-18T02:06:25;99435.13;;;14.98;75.96
29907;BME280;16776;50.958;10.994;2022-07-18T02:08:52;99428.31;;;14.95;76.11
29907;BME280;16776;50.958;10.994;2022-07-18T02:11:18;99430.94;;;14.94;76.20
29907;BME280;16776;50.958;10.994;2022-07-18T02:13:46;99432.69;;;14.93;76.15
29907;BME280;16776;50.958;10.994;2022-07-18T02:16:13;99433.69;;;14.89;76.43
29907;BME280;16776;50.958;10.994;2022-07-18T02:18:39;99429.44;;;14.87;76.21
29907;BME280;16776;50.958;10.994;2022-07-18T02:21:06;99428.72;;;14.83;76.43
29907;BME280;16776;50.958;10.994;2022-07-18T02:23:33;99427.91;;;14.81;76.37
29907;BME280;16776;50.958;10.994;2022-07-18T02:26:00;99415.00;;;14.78;76.18
29907;BME280;16776;50.958;10.994;2022-07-18T02:28:27;99409.09;;;14.75;76.17
29907;BME280;16776;50.958;10.994;2022-07-18T02:30:55;99405.66;;;14.74;76.04
29907;BME280;16776;50.958;10.994;2022-07-18T02:33:22;99411.03;;;14.68;76.04
29907;BME280;16776;50.958;10.994;2022-07-18T02:35:48;99414.66;;;14.63;76.17
29907;BME280;16776;50.958;10.994;2022-07-18T02:38:15;99406.09;;;14.59;76.08
29907;BME280;16776;50.958;10.994;2022-07-18T02:40:42;99408.03;;;14.52;75.82
29907;BME280;16776;50.958;10.994;2022-07-18T02:43:12;99403.91;;;14.47;76.20
29907;BME280;16776;50.958;10.994;2022-07-18T02:45:38;99401.53;;;14.39;75.94
29907;BME280;16776;50.958;10.994;2022-07-18T02:48:06;99399.91;;;14.35;75.84
29907;BME280;16776;50.958;10.994;2022-07-18T02:50:33;99400.25;;;14.23;76.10
29907;BME280;16776;50.958;10.994;2022-07-18T02:53:00;99396.28;;;14.11;76.32
29907;BME280;16776;50.958;10.994;2022-07-18T02:55:26;99380.44;;;13.93;76.27
29907;BME280;16776;50.958;10.994;2022-07-18T02:57:53;99412.03;;;14.04;76.85
29907;BME280;16776;50.958;10.994;2022-07-18T03:00:20;99378.81;;;13.89;76.48
29907;BME280;16776;50.958;10.994;2022-07-18T03:02:46;99400.97;;;13.99;76.60
29907;BME280;16776;50.958;10.994;2022-07-18T03:05:14;99405.25;;;14.00;76.89
29907;BME280;16776;50.958;10.994;2022-07-18T03:07:41;99411.41;;;13.96;76.71
29907;BME280;16776;50.958;10.994;2022-07-18T03:10:08;99406.28;;;13.94;76.82
29907;BME280;16776;50.958;10.994;2022-07-18T03:12:35;99412.34;;;13.93;76.84
29907;BME280;16776;50.958;10.994;2022-07-18T03:15:01;99412.41;;;13.92;77.02
29907;BME280;16776;50.958;10.994;2022-07-18T03:17:28;99406.41;;;13.90;76.70
29907;BME280;16776;50.958;10.994;2022-07-18T03:19:55;99411.69;;;13.87;76.77
29907;BME280;16776;50.958;10.994;2022-07-18T03:22:22;99416.00;;;13.86;76.75
29907;BME280;16776;50.958;10.994;2022-07-18T03:24:51;99416.94;;;13.83;77.03
29907;BME280;16776;50.958;10.994;2022-07-18T03:27:17;99419.66;;;13.79;76.87
29907;BME280;16776;50.958;10.994;2022-07-18T03:29:44;99430.94;;;13.76;77.10
29907;BME280;16776;50.958;10.994;2022-07-18T03:32:11;99432.66;;;13.76;77.14
29907;BME280;16776;50.958;10.994;2022-07-18T03:34:37;99432.66;;;13.76;77.21
29907;BME280;16776;50.958;10.994;2022-07-18T03:37:04;99436.09;;;13.76;77.50
29907;BME280;16776;50.958;10.994;2022-07-18T03:39:32;99436.03;;;13.79;77.38
29907;BME280;16776;50.958;10.994;2022-07-18T03:41:59;99430.03;;;13.77;77.33
29907;BME280;16776;50.958;10.994;2022-07-18T03:44:25;99428.34;;;13.76;77.24
29907;BME280;16776;50.958;10.994;2022-07-18T03:46:54;99422.22;;;13.80;77.87
29907;BME280;16776;50.958;10.994;2022-07-18T03:49:21;99422.38;;;13.74;77.55
29907;BME280;16776;50.958;10.994;2022-07-18T03:51:47;99422.41;;;13.73;77.58
29907;BME280;16776;50.958;10.994;2022-07-18T03:54:14;99418.97;;;13.72;78.06
29907;BME280;16776;50.958;10.994;2022-07-18T03:56:42;99417.19;;;13.74;77.48
29907;BME280;16776;50.958;10.994;2022-07-18T03:59:08;99419.84;;;13.71;77.94
29907;BME280;16776;50.958;10.994;2022-07-18T04:01:35;99424.28;;;13.68;77.68
29907;BME280;16776;50.958;10.994;2022-07-18T04:04:01;99418.16;;;13.70;77.98
29907;BME280;16776;50.958;10.994;2022-07-18T04:06:28;99400.34;;;13.58;77.93
29907;BME280;16776;50.958;10.994;2022-07-18T04:08:56;99416.53;;;13.66;77.91
29907;BME280;16776;50.958;10.994;2022-07-18T04:11:23;99414.09;;;13.62;77.60
29907;BME280;16776;50.958;10.994;2022-07-18T04:13:51;99415.88;;;13.58;79.03
29907;BME280;16776;50.958;10.994;2022-07-18T04:16:18;99407.38;;;13.53;79.64
29907;BME280;16776;50.958;10.994;2022-07-18T04:18:45;99410.81;;;13.55;79.30
29907;BME280;16776;50.958;10.994;2022-07-18T04:21:12;99413.31;;;13.58;79.36
29907;BME280;16776;50.958;10.994;2022-07-18T04:23:39;99414.94;;;13.62;79.69
29907;BME280;16776;50.958;10.994;2022-07-18T04:26:06;99412.09;;;13.71;80.11
29907;BME280;16776;50.958;10.994;2022-07-18T04:28:33;99422.09;;;13.83;79.80
29907;BME280;16776;50.958;10.994;2022-07-18T04:31:00;99416.47;;;14.00;79.96
29907;BME280;16776;50.958;10.994;2022-07-18T04:33:27;99412.69;;;14.12;80.33
29907;BME280;16776;50.958;10.994;2022-07-18T04:35:54;99409.63;;;14.27;79.99
29907;BME280;16776;50.958;10.994;2022-07-18T04:38:20;99410.09;;;14.41;80.03
29907;BME280;16776;50.958;10.994;2022-07-18T04:40:47;99406.25;;;14.54;79.65
29907;BME280;16776;50.958;10.994;2022-07-18T04:43:13;99394.81;;;14.61;79.56
29907;BME280;16776;50.958;10.994;2022-07-18T04:45:40;99396.28;;;14.70;80.34
29907;BME280;16776;50.958;10.994;2022-07-18T04:48:08;99403.63;;;14.84;80.20
29907;BME280;16776;50.958;10.994;2022-07-18T04:50:34;99401.50;;;14.96;80.27
29907;BME280;16776;50.958;10.994;2022-07-18T04:53:01;99400.13;;;15.11;79.74
29907;BME280;16776;50.958;10.994;2022-07-18T04:55:27;99400.50;;;15.25;80.12
29907;BME280;16776;50.958;10.994;2022-07-18T04:57:54;99399.19;;;15.40;79.77
29907;BME280;16776;50.958;10.994;2022-07-18T05:00:23;99397.81;;;15.55;79.66
29907;BME280;16776;50.958;10.994;2022-07-18T05:02:51;99400.94;;;15.64;79.07
29907;BME280;16776;50.958;10.994;2022-07-18T05:05:20;99402.41;;;15.71;78.86
29907;BME280;16776;50.958;10.994;2022-07-18T05:07:48;99405.88;;;15.72;78.91
29907;BME280;16776;50.958;10.994;2022-07-18T05:10:16;99398.88;;;15.74;79.04
29907;BME280;16776;50.958;10.994;2022-07-18T05:12:47;99402.16;;;15.79;78.80
29907;BME280;16776;50.958;10.994;2022-07-18T05:15:16;99403.84;;;15.80;79.10
29907;BME280;16776;50.958;10.994;2022-07-18T05:17:43;99397.69;;;15.83;79.03
29907;BME280;16776;50.958;10.994;2022-07-18T05:20:12;99398.44;;;15.86;78.86
29907;BME280;16776;50.958;10.994;2022-07-18T05:22:41;99406.16;;;15.88;78.74
29907;BME280;16776;50.958;10.994;2022-07-18T05:25:09;99386.78;;;15.73;78.71
29907;BME280;16776;50.958;10.994;2022-07-18T05:27:36;99381.63;;;15.71;79.47
29907;BME280;16776;50.958;10.994;2022-07-18T05:30:06;99404.13;;;15.96;78.98
29907;BME280;16776;50.958;10.994;2022-07-18T05:32:33;99406.63;;;15.99;79.21
29907;BME280;16776;50.958;10.994;2022-07-18T05:34:59;99402.06;;;16.05;79.34
29907;BME280;16776;50.958;10.994;2022-07-18T05:37:26;99397.41;;;16.13;79.42
29907;BME280;16776;50.958;10.994;2022-07-18T05:39:54;99399.69;;;16.23;79.13
29907;BME280;16776;50.958;10.994;2022-07-18T05:42:22;99383.31;;;16.20;79.31
29907;BME280;16776;50.958;10.994;2022-07-18T05:44:48;99395.78;;;16.34;79.59
29907;BME280;16776;50.958;10.994;2022-07-18T05:47:15;99411.09;;;16.42;79.55
29907;BME280;16776;50.958;10.994;2022-07-18T05:49:41;99403.16;;;16.45;80.19
29907;BME280;16776;50.958;10.994;2022-07-18T05:52:08;99410.44;;;16.58;79.38
29907;BME280;16776;50.958;10.994;2022-07-18T05:54:34;99405.78;;;16.67;79.86
29907;BME280;16776;50.958;10.994;2022-07-18T05:57:02;99397.50;;;16.79;79.35
29907;BME280;16776;50.958;10.994;2022-07-18T05:59:29;99383.66;;;16.78;79.84
29907;BME280;16776;50.958;10.994;2022-07-18T06:01:56;99392.44;;;16.97;79.24
29907;BME280;16776;50.958;10.994;2022-07-18T06:04:22;99393.09;;;17.03;79.13
29907;BME280;16776;50.958;10.994;2022-07-18T06:06:49;99398.38;;;17.21;79.90
29907;BME280;16776;50.958;10.994;2022-07-18T06:09:17;99391.69;;;17.36;79.31
29907;BME280;16776;50.958;10.994;2022-07-18T06:11:43;99394.50;;;17.52;79.08
29907;BME280;16776;50.958;10.994;2022-07-18T06:14:11;99398.91;;;17.70;79.26
29907;BME280;16776;50.958;10.994;2022-07-18T06:16:38;99407.06;;;17.83;79.74
29907;BME280;16776;50.958;10.994;2022-07-18T06:19:05;99403.00;;;17.96;79.26
29907;BME280;16776;50.958;10.994;2022-07-18T06:21:31;99398.03;;;18.10;79.62
29907;BME280;16776;50.958;10.994;2022-07-18T06:23:58;99384.00;;;18.12;78.87
29907;BME280;16776;50.958;10.994;2022-07-18T06:26:24;99401.84;;;18.40;78.94
29907;BME280;16776;50.958;10.994;2022-07-18T06:28:51;99406.44;;;18.54;79.25
29907;BME280;16776;50.958;10.994;2022-07-18T06:31:19;99395.19;;;18.71;79.63
29907;BME280;16776;50.958;10.994;2022-07-18T06:33:45;99394.53;;;18.84;79.60
29907;BME280;16776;50.958;10.994;2022-07-18T06:36:12;99391.88;;;19.03;79.60
29907;BME280;16776;50.958;10.994;2022-07-18T06:38:39;99387.31;;;19.25;79.08
29907;BME280;16776;50.958;10.994;2022-07-18T06:41:06;99391.44;;;19.47;78.73
29907;BME280;16776;50.958;10.994;2022-07-18T06:43:33;99383.66;;;19.62;78.74
29907;BME280;16776;50.958;10.994;2022-07-18T06:45:59;99399.31;;;19.80;79.01
29907;BME280;16776;50.958;10.994;2022-07-18T06:48:27;99385.22;;;19.99;78.51
29907;BME280;16776;50.958;10.994;2022-07-18T06:50:58;99391.41;;;20.14;79.11
29907;BME280;16776;50.958;10.994;2022-07-18T06:53:25;99396.41;;;20.34;79.19
29907;BME280;16776;50.958;10.994;2022-07-18T06:55:51;99394.25;;;20.58;79.34
29907;BME280;16776;50.958;10.994;2022-07-18T06:58:18;99385.84;;;20.83;79.10
29907;BME280;16776;50.958;10.994;2022-07-18T07:00:44;99384.34;;;21.09;79.05
29907;BME280;16776;50.958;10.994;2022-07-18T07:03:11;99366.75;;;21.26;78.89
29907;BME280;16776;50.958;10.994;2022-07-18T07:05:39;99383.00;;;21.61;78.43
29907;BME280;16776;50.958;10.994;2022-07-18T07:08:05;99379.25;;;21.80;77.73
29907;BME280;16776;50.958;10.994;2022-07-18T07:10:32;99377.03;;;22.02;77.99
29907;BME280;16776;50.958;10.994;2022-07-18T07:12:59;99375.91;;;22.20;77.29
29907;BME280;16776;50.958;10.994;2022-07-18T07:15:25;99310.25;;;21.93;77.43
29907;BME280;16776;50.958;10.994;2022-07-18T07:17:52;99385.31;;;22.51;77.44
29907;BME280;16776;50.958;10.994;2022-07-18T07:20:19;99372.97;;;22.66;77.51
29907;BME280;16776;50.958;10.994;2022-07-18T07:22:48;99370.97;;;22.83;76.85
29907;BME280;16776;50.958;10.994;2022-07-18T07:25:16;99368.38;;;22.96;77.31
29907;BME280;16776;50.958;10.994;2022-07-18T07:27:43;99372.91;;;23.07;76.75
29907;BME280;16776;50.958;10.994;2022-07-18T07:30:11;99376.53;;;23.18;77.20
29907;BME280;16776;50.958;10.994;2022-07-18T07:32:39;99369.41;;;23.33;76.31
29907;BME280;16776;50.958;10.994;2022-07-18T07:35:09;99369.63;;;23.43;77.12
29907;BME280;16776;50.958;10.994;2022-07-18T07:37:37;99374.38;;;23.50;76.35
29907;BME280;16776;50.958;10.994;2022-07-18T07:40:07;99362.28;;;23.60;76.50
29907;BME280;16776;50.958;10.994;2022-07-18T07:42:34;99369.41;;;23.71;76.46
29907;BME280;16776;50.958;10.994;2022-07-18T07:45:01;99372.19;;;23.82;76.45
29907;BME280;16776;50.958;10.994;2022-07-18T07:47:27;99369.66;;;23.93;76.90
29907;BME280;16776;50.958;10.994;2022-07-18T07:49:54;99358.47;;;24.02;76.36
29907;BME280;16776;50.958;10.994;2022-07-18T07:52:21;99357.84;;;24.12;76.39
29907;BME280;16776;50.958;10.994;2022-07-18T07:54:49;99345.63;;;24.10;76.31
29907;BME280;16776;50.958;10.994;2022-07-18T07:57:17;99357.06;;;24.35;76.52
29907;BME280;16776;50.958;10.994;2022-07-18T07:59:43;99350.16;;;24.45;76.23
29907;BME280;16776;50.958;10.994;2022-07-18T08:02:10;99350.72;;;24.61;76.13
29907;BME280;16776;50.958;10.994;2022-07-18T08:04:37;99349.28;;;24.81;76.41
29907;BME280;16776;50.958;10.994;2022-07-18T08:07:03;99344.56;;;24.97;76.46
29907;BME280;16776;50.958;10.994;2022-07-18T08:09:30;99338.88;;;25.14;76.08
29907;BME280;16776;50.958;10.994;2022-07-18T08:11:56;99340.22;;;25.31;75.92
29907;BME280;16776;50.958;10.994;2022-07-18T08:14:24;99337.88;;;25.50;75.84
29907;BME280;16776;50.958;10.994;2022-07-18T08:16:51;99329.28;;;25.59;75.22
29907;BME280;16776;50.958;10.994;2022-07-18T08:19:17;99335.00;;;25.76;75.01
29907;BME280;16776;50.958;10.994;2022-07-18T08:21:44;99338.13;;;25.81;75.28
29907;BME280;16776;50.958;10.994;2022-07-18T08:24:10;99324.09;;;25.80;74.70
29907;BME280;16776;50.958;10.994;2022-07-18T08:26:37;99325.75;;;25.92;75.27
29907;BME280;16776;50.958;10.994;2022-07-18T08:29:05;99326.94;;;25.99;75.24
29907;BME280;16776;50.958;10.994;2022-07-18T08:31:33;99326.16;;;26.10;75.28
29907;BME280;16776;50.958;10.994;2022-07-18T08:34:00;99329.97;;;26.17;74.32
29907;BME280;16776;50.958;10.994;2022-07-18T08:36:27;99326.34;;;26.18;74.07
29907;BME280;16776;50.958;10.994;2022-07-18T08:38:53;99320.84;;;26.21;74.34
29907;BME280;16776;50.958;10.994;2022-07-18T08:41:22;99308.47;;;26.22;73.90
29907;BME280;16776;50.958;10.994;2022-07-18T08:43:49;99317.94;;;26.24;73.98
29907;BME280;16776;50.958;10.994;2022-07-18T08:46:18;99311.47;;;26.28;74.58
29907;BME280;16776;50.958;10.994;2022-07-18T08:48:48;99315.41;;;26.34;74.32
29907;BME280;16776;50.958;10.994;2022-07-18T08:51:16;99324.41;;;26.42;74.04
29907;BME280;16776;50.958;10.994;2022-07-18T08:53:43;99323.13;;;26.58;74.19
29907;BME280;16776;50.958;10.994;2022-07-18T08:56:12;99321.91;;;26.73;74.41
29907;BME280;16776;50.958;10.994;2022-07-18T08:58:41;99324.69;;;26.92;74.42
29907;BME280;16776;50.958;10.994;2022-07-18T09:01:09;99321.59;;;27.08;74.03
29907;BME280;16776;50.958;10.994;2022-07-18T09:03:36;99322.16;;;27.22;74.44
29907;BME280;16776;50.958;10.994;2022-07-18T09:06:12;99330.50;;;27.48;74.74
29907;BME280;16776;50.958;10.994;2022-07-18T09:08:59;99330.38;;;27.71;74.71
29907;BME280;16776;50.958;10.994;2022-07-18T09:11:28;99320.78;;;27.79;74.32
29907;BME280;16776;50.958;10.994;2022-07-18T09:13:55;99318.19;;;27.98;73.79
29907;BME280;16776;50.958;10.994;2022-07-18T09:16:28;99322.34;;;28.22;73.34
29907;BME280;16776;50.958;10.994;2022-07-18T09:18:54;99326.09;;;28.29;73.33
29907;BME280;16776;50.958;10.994;2022-07-18T09:21:24;99320.81;;;28.48;74.01
29907;BME280;16776;50.958;10.994;2022-07-18T09:23:52;99323.06;;;28.62;74.10
29907;BME280;16776;50.958;10.994;2022-07-18T09:26:38;99317.22;;;28.88;73.98
29907;BME280;16776;50.958;10.994;2022-07-18T09:29:04;99318.47;;;28.93;73.53
29907;BME280;16776;50.958;10.994;2022-07-18T09:31:33;99323.06;;;29.10;73.76
29907;BME280;16776;50.958;10.994;2022-07-18T09:34:02;99317.38;;;29.25;73.01
29907;BME280;16776;50.958;10.994;2022-07-18T09:36:30;99317.84;;;29.47;73.51
29907;BME280;16776;50.958;10.994;2022-07-18T09:39:17;99311.22;;;29.71;73.63
29907;BME280;16776;50.958;10.994;2022-07-18T09:41:43;99313.72;;;29.72;73.09
29907;BME280;16776;50.958;10.994;2022-07-18T09:44:13;99315.59;;;29.89;72.04
29907;BME280;16776;50.958;10.994;2022-07-18T09:46:58;99321.94;;;30.06;72.69
29907;BME280;16776;50.958;10.994;2022-07-18T09:49:28;99319.28;;;30.06;71.71
29907;BME280;16776;50.958;10.994;2022-07-18T09:52:07;99321.03;;;30.15;72.16
29907;BME280;16776;50.958;10.994;2022-07-18T09:54:36;99318.84;;;30.11;72.05
29907;BME280;16776;50.958;10.994;2022-07-18T09:57:04;99315.19;;;30.12;71.37
29907;BME280;16776;50.958;10.994;2022-07-18T09:59:30;99313.63;;;30.19;70.26
29907;BME280;16776;50.958;10.994;2022-07-18T10:01:58;99313.75;;;30.17;70.07
29907;BME280;16776;50.958;10.994;2022-07-18T10:04:27;99310.72;;;30.12;69.70
29907;BME280;16776;50.958;10.994;2022-07-18T10:06:54;99305.16;;;30.06;69.74
29907;BME280;16776;50.958;10.994;2022-07-18T10:09:22;99309.13;;;30.02;69.50
29907;BME280;16776;50.958;10.994;2022-07-18T10:11:48;99303.84;;;29.92;69.09
29907;BME280;16776;50.958;10.994;2022-07-18T10:14:15;99305.13;;;29.88;69.18
29907;BME280;16776;50.958;10.994;2022-07-18T10:16:43;99302.31;;;29.89;68.80
29907;BME280;16776;50.958;10.994;2022-07-18T10:19:09;99300.66;;;29.88;68.17
29907;BME280;16776;50.958;10.994;2022-07-18T10:21:37;99295.50;;;29.87;68.23
29907;BME280;16776;50.958;10.994;2022-07-18T10:24:04;99303.22;;;29.80;68.06
29907;BME280;16776;50.958;10.994;2022-07-18T10:26:32;99289.69;;;29.74;68.00
29907;BME280;16776;50.958;10.994;2022-07-18T10:29:15;99294.69;;;29.77;69.31
29907;BME280;16776;50.958;10.994;2022-07-18T10:32:04;99296.69;;;29.75;69.23
29907;BME280;16776;50.958;10.994;2022-07-18T10:34:37;99293.19;;;29.74;69.09
29907;BME280;16776;50.958;10.994;2022-07-18T10:37:09;99300.41;;;29.82;68.93
29907;BME280;16776;50.958;10.994;2022-07-18T10:39:42;99299.13;;;29.86;69.23
29907;BME280;16776;50.958;10.994;2022-07-18T10:42:21;99294.69;;;30.04;69.34
29907;BME280;16776;50.958;10.994;2022-07-18T10:44:49;99299.16;;;30.04;68.70
29907;BME280;16776;50.958;10.994;2022-07-18T10:47:18;99285.41;;;30.08;68.57
29907;BME280;16776;50.958;10.994;2022-07-18T10:50:06;99284.19;;;30.30;68.65
29907;BME280;16776;50.958;10.994;2022-07-18T10:53:00;99283.22;;;30.31;69.00
29907;BME280;16776;50.958;10.994;2022-07-18T10:55:31;99278.78;;;30.22;69.38
29907;BME280;16776;50.958;10.994;2022-07-18T10:58:18;99281.31;;;30.41;69.41
29907;BME280;16776;50.958;10.994;2022-07-18T11:00:48;99276.44;;;30.36;68.60
29907;BME280;16776;50.958;10.994;2022-07-18T11:03:16;99275.16;;;30.41;69.06
29907;BME280;16776;50.958;10.994;2022-07-18T11:05:46;99270.06;;;30.47;68.48
29907;BME280;16776;50.958;10.994;2022-07-18T11:08:16;99270.28;;;30.54;68.73
29907;BME280;16776;50.958;10.994;2022-07-18T11:11:09;99264.00;;;30.72;69.41
29907;BME280;16776;50.958;10.994;2022-07-18T11:13:38;99264.16;;;30.71;68.80
29907;BME280;16776;50.958;10.994;2022-07-18T11:16:08;99258.75;;;30.81;68.86
29907;BME280;16776;50.958;10.994;2022-07-18T11:21:35;99256.50;;;30.94;68.83
29907;BME280;16776;50.958;10.994;2022-07-18T11:24:03;99256.09;;;31.06;69.21
29907;BME280;16776;50.958;10.994;2022-07-18T11:26:32;99251.66;;;31.15;69.15
29907;BME280;16776;50.958;10.994;2022-07-18T11:29:07;99258.56;;;31.26;68.61
29907;BME280;16776;50.958;10.994;2022-07-18T11:31:44;99257.97;;;31.40;68.36
29907;BME280;16776;50.958;10.994;2022-07-18T11:34:14;99253.66;;;31.39;68.91
29907;BME280;16776;50.958;10.994;2022-07-18T11:36:42;99248.03;;;31.42;68.53
29907;BME280;16776;50.958;10.994;2022-07-18T11:39:09;99237.38;;;31.42;69.29
29907;BME280;16776;50.958;10.994;2022-07-18T11:41:38;99255.38;;;31.56;68.97
29907;BME280;16776;50.958;10.994;2022-07-18T11:44:15;99241.00;;;31.75;68.70
29907;BME280;16776;50.958;10.994;2022-07-18T11:46:42;99236.69;;;31.74;68.86
29907;BME280;16776;50.958;10.994;2022-07-18T11:49:09;99236.88;;;31.80;69.18
29907;BME280;16776;50.958;10.994;2022-07-18T11:51:37;99238.56;;;31.89;69.52
29907;BME280;16776;50.958;10.994;2022-07-18T11:54:06;99235.56;;;32.01;68.89
29907;BME280;16776;50.958;10.994;2022-07-18T11:56:45;99232.16;;;32.16;69.52
29907;BME280;16776;50.958;10.994;2022-07-18T11:59:13;99234.97;;;32.15;69.26
29907;BME280;16776;50.958;10.994;2022-07-18T12:01:40;99224.31;;;32.15;68.61
29907;BME280;16776;50.958;10.994;2022-07-18T12:04:15;99227.16;;;32.29;68.38
29907;BME280;16776;50.958;10.994;2022-07-18T12:06:45;99224.66;;;32.28;68.76
29907;BME280;16776;50.958;10.994;2022-07-18T12:09:26;99216.50;;;32.38;68.59
29907;BME280;16776;50.958;10.994;2022-07-18T12:11:53;99220.31;;;32.27;67.85
29907;BME280;16776;50.958;10.994;2022-07-18T12:14:21;99215.34;;;32.32;68.43
29907;BME280;16776;50.958;10.994;2022-07-18T12:16:55;99213.69;;;32.31;68.58
29907;BME280;16776;50.958;10.994;2022-07-18T12:19:32;99211.50;;;32.43;68.23
29907;BME280;16776;50.958;10.994;2022-07-18T12:22:05;99209.16;;;32.40;68.31
29907;BME280;16776;50.958;10.994;2022-07-18T12:24:34;99204.34;;;32.35;68.13
29907;BME280;16776;50.958;10.994;2022-07-18T12:27:34;99202.69;;;32.42;68.02
29907;BME280;16776;50.958;10.994;2022-07-18T12:30:11;99194.03;;;32.32;68.13
29907;BME280;16776;50.958;10.994;2022-07-18T12:32:45;99182.66;;;32.14;67.09
29907;BME280;16776;50.958;10.994;2022-07-18T12:35:14;99193.78;;;32.01;67.26
29907;BME280;16776;50.958;10.994;2022-07-18T12:37:41;99179.28;;;31.87;67.54
29907;BME280;16776;50.958;10.994;2022-07-18T12:40:16;99174.28;;;31.84;67.28
29907;BME280;16776;50.958;10.994;2022-07-18T12:42:43;99177.44;;;31.80;67.52
29907;BME280;16776;50.958;10.994;2022-07-18T12:45:12;99173.94;;;31.79;67.65
29907;BME280;16776;50.958;10.994;2022-07-18T12:47:39;99176.75;;;31.70;67.46
29907;BME280;16776;50.958;10.994;2022-07-18T12:50:07;99166.72;;;31.64;67.73
29907;BME280;16776;50.958;10.994;2022-07-18T12:52:34;99165.88;;;31.63;67.73
29907;BME280;16776;50.958;10.994;2022-07-18T12:55:01;99167.38;;;31.58;66.95
29907;BME280;16776;50.958;10.994;2022-07-18T12:57:27;99163.53;;;31.52;67.10
29907;BME280;16776;50.958;10.994;2022-07-18T12:59:54;99164.84;;;31.48;67.75